< < Back
Terminal Aerodrome Forecast


Current Version              Previous Versions:   1  2  3  4  5  6  7  8  9  

Terminal Aerodrome Forecast

802
FTAK31 PAJN 292300
TAFAHN
TAF
PAHN 292325Z 3000/3024 10010G18KT P6SM VCSH SCT015 OVC035
      TEMPO 3000/3004 -SHRA BKN015
     FM300400 09007KT P6SM -SHRA BKN015 OVC030
     FM301200 31008KT P6SM -SHRA FEW010 SCT015 OVC030
      AMD LTD TO CLD VIS AND WIND=

Latest METAR

504
SAUS70 KWBC 292300 RRA
MTRAHN
METAR KAHN 292251Z 22006KT 10SM CLR 14/M09 A3026 RMK AO2 SLP251
T01391094


USA.gov is the U.S. government's official web portal to all federal, state and local government web resources and services.